Time;durP1;ratioP1;P1;durP2;ratioP2;P2;SDS_P1;SDS_P2;PMS_P1;PMS_P2;Temp;Humidity;BMP_temperature;BMP_pressure;BME280_temperature;BME280_humidity;BME280_pressure;Samples;Min_cycle;Max_cycle;Signal;HPM_P1;HPM_P2
2023/05/31 00:00:09;;;;;;;;;;;;;;;;;;5060836;28;20289;-90
2023/05/31 00:02:37;;;;;;;;;;;;;;;;;;5032333;28;19925;-89
2023/05/31 00:05:05;;;;;;;;;;;;;;;;;;5033190;28;19928;-89
2023/05/31 00:07:32;;;;;;;;;;;;;;;;;;5061530;28;19928;-88
2023/05/31 00:10:00;;;;;;;;;;;;;;;;;;5032928;28;19921;-90
2023/05/31 00:12:28;;;;;;;;;;;;;;;;;;5026688;28;20370;-88
2023/05/31 00:14:55;;;;;;;;;;;;;;;;;;5061042;28;19928;-89
2023/05/31 00:17:23;;;;;;;;;;;;;;;;;;5034570;28;19929;-88
2023/05/31 00:19:50;;;;;;;;;;;;;;;;;;5067818;28;20621;-89
2023/05/31 00:22:18;;;;;;;;;;;;;;;;;;5033637;28;19924;-90
2023/05/31 00:24:45;;;;;;;;;;;;;;;;;;5035507;28;19921;-90
2023/05/31 00:27:13;;;;;;;;;;;;;;;;;;5067332;28;19928;-89
2023/05/31 00:29:41;;;;;;;;;;;;;;;;;;5025234;28;19928;-89
2023/05/31 00:32:09;;;;;;;;;;;;;;;;;;5047025;28;19921;-90
2023/05/31 00:34:37;;;;;;;;;;;;;;;;;;5026137;28;19921;-89
2023/05/31 00:37:05;;;;;;;;;;;;;;;;;;5034193;28;19927;-88
2023/05/31 00:39:33;;;;;;;;;;;;;;;;;;5033193;28;19928;-88
2023/05/31 00:42:06;;;;;;;;;;;;;;;;;;5031902;28;20385;-89
2023/05/31 00:44:33;;;;;;;;;;;;;;;;;;5033479;28;19921;-90
2023/05/31 00:47:01;;;;;;;;;;;;;;;;;;5033099;28;19921;-88
2023/05/31 00:49:28;;;;;;;;;;;;;;;;;;5065996;28;19932;-89
2023/05/31 00:51:56;;;;;;;;;;;;;;;;;;5029117;28;19925;-89
2023/05/31 00:54:24;;;;;;;;;;;;;;;;;;5047642;28;20302;-89
2023/05/31 00:56:51;;;;;;;;;;;;;;;;;;5059496;28;19928;-89
2023/05/31 00:59:19;;;;;;;;;;;;;;;;;;5060944;28;19921;-89
2023/05/31 01:01:47;;;;;;;;;;;;;;;;;;5066815;28;19928;-89
2023/05/31 01:04:15;;;;;;;;;;;;;;;;;;5035056;28;19921;-90
2023/05/31 01:06:43;;;;;;;;;;;;;;;;;;5028245;28;19921;-87
2023/05/31 01:09:10;;;;;;;;;;;;;;;;;;5067210;28;20353;-88
2023/05/31 01:11:38;;;;;;;;;;;;;;;;;;5029085;28;19928;-89
2023/05/31 01:14:06;;;;;;;;;;;;;;;;;;5056789;28;19922;-89
2023/05/31 01:16:33;;;;;;;;;;;;;;;;;;5061168;28;20376;-88
2023/05/31 01:19:07;;;;;;;;;;;;;;;;;;5027999;28;19921;-86
2023/05/31 01:21:37;;;;;;;;;;;;;;;;;;5030328;28;19921;-89
2023/05/31 01:24:04;;;;;;;;;;;;;;;;;;5056231;28;20569;-88
2023/05/31 01:26:32;;;;;;;;;;;;;;;;;;5030696;28;19928;-89
2023/05/31 01:29:04;;;;;;;;;;;;;;;;;;5059115;28;19921;-87
2023/05/31 01:31:32;;;;;;;;;;;;;;;;;;5030426;28;19925;-89
2023/05/31 01:33:59;;;;;;;;;;;;;;;;;;5060431;28;19925;-89
2023/05/31 01:36:27;;;;;;;;;;;;;;;;;;5063963;28;19935;-86
2023/05/31 01:38:59;;;;;;;;;;;;;;;;;;5044124;28;19932;-87
2023/05/31 01:41:29;;;;;;;;;;;;;;;;;;5029269;28;19936;-88
2023/05/31 01:43:57;;;;;;;;;;;;;;;;;;5049335;28;19932;-89
2023/05/31 01:46:25;;;;;;;;;;;;;;;;;;5028003;28;19921;-88
2023/05/31 01:48:53;;;;;;;;;;;;;;;;;;5057596;28;19928;-89
2023/05/31 01:51:25;;;;;;;;;;;;;;;;;;5057043;28;20369;-89
2023/05/31 01:53:58;;;;;;;;;;;;;;;;;;5055659;28;20370;-88
2023/05/31 01:56:28;;;;;;;;;;;;;;;;;;5056217;28;19921;-88
2023/05/31 01:58:56;;;;;;;;;;;;;;;;;;5056102;28;20401;-89
2023/05/31 02:01:23;;;;;;;;;;;;;;;;;;5057503;28;19921;-88
2023/05/31 02:03:52;;;;;;;;;;;;;;;;;;5026396;28;20322;-88
2023/05/31 02:06:26;;;;;;;;;;;;;;;;;;5059436;28;19924;-88
2023/05/31 02:08:54;;;;;;;;;;;;;;;;;;5055464;28;19920;-88
2023/05/31 02:11:27;;;;;;;;;;;;;;;;;;5042370;28;19925;-89
2023/05/31 02:13:56;;;;;;;;;;;;;;;;;;5053894;28;19928;-89
2023/05/31 02:16:24;;;;;;;;;;;;;;;;;;5059122;28;19928;-88
2023/05/31 02:18:58;;;;;;;;;;;;;;;;;;5056809;28;19928;-89
2023/05/31 02:21:31;;;;;;;;;;;;;;;;;;5040655;28;19925;-88
2023/05/31 02:23:59;;;;;;;;;;;;;;;;;;5031865;28;19921;-89
2023/05/31 02:26:26;;;;;;;;;;;;;;;;;;5057668;28;19992;-89
2023/05/31 02:28:54;;;;;;;;;;;;;;;;;;5060467;28;19921;-90
2023/05/31 02:31:26;;;;;;;;;;;;;;;;;;5030031;28;19936;-89
2023/05/31 02:34:00;;;;;;;;;;;;;;;;;;5055340;28;19922;-88
2023/05/31 02:36:28;;;;;;;;;;;;;;;;;;5058069;28;19921;-89
2023/05/31 02:39:00;;;;;;;;;;;;;;;;;;5029404;28;19932;-89
2023/05/31 02:41:28;;;;;;;;;;;;;;;;;;5044252;28;20389;-89
2023/05/31 02:44:04;;;;;;;;;;;;;;;;;;5026131;28;19921;-90
2023/05/31 02:46:31;;;;;;;;;;;;;;;;;;5024162;28;19929;-89
2023/05/31 02:49:04;;;;;;;;;;;;;;;;;;5060124;28;19928;-90
2023/05/31 02:51:32;;;;;;;;;;;;;;;;;;5029364;28;19928;-89
2023/05/31 02:54:28;;;;;;;;;;;;;;;;;;5031509;28;19922;-90
2023/05/31 02:56:56;;;;;;;;;;;;;;;;;;5057302;28;19921;-89
2023/05/31 02:59:26;;;;;;;;;;;;;;;;;;5059713;28;19932;-89
2023/05/31 03:02:01;;;;;;;;;;;;;;;;;;5032179;28;19932;-89
2023/05/31 03:04:49;;;;;;;;;;;;;;;;;;5032416;28;19921;-89
2023/05/31 03:07:22;;;;;;;;;;;;;;;;;;5062509;28;19928;-89
2023/05/31 03:09:55;;;;;;;;;;;;;;;;;;5060789;28;19921;-89
2023/05/31 03:12:23;;;;;;;;;;;;;;;;;;5032455;28;19921;-90
2023/05/31 03:14:50;;;;;;;;;;;;;;;;;;5059005;28;20198;-90
2023/05/31 03:17:18;;;;;;;;;;;;;;;;;;5030279;28;19921;-89
2023/05/31 03:19:46;;;;;;;;;;;;;;;;;;5060222;28;19936;-88
2023/05/31 03:22:18;;;;;;;;;;;;;;;;;;5038988;28;19944;-90
2023/05/31 03:24:47;;;;;;;;;;;;;;;;;;5031652;28;19928;-89
2023/05/31 03:27:17;;;;;;;;;;;;;;;;;;5060430;28;19936;-89
2023/05/31 03:29:44;;;;;;;;;;;;;;;;;;5059427;28;19944;-90
2023/05/31 03:32:17;;;;;;;;;;;;;;;;;;5061720;28;20484;-92
2023/05/31 03:34:45;;;;;;;;;;;;;;;;;;5037199;28;19921;-90
2023/05/31 03:37:12;;;;;;;;;;;;;;;;;;5065878;28;19921;-89
2023/05/31 03:40:06;;;;;;;;;;;;;;;;;;5032116;28;20408;-90
2023/05/31 03:42:33;;;;;;;;;;;;;;;;;;5063657;28;19921;-90
2023/05/31 03:45:01;;;;;;;;;;;;;;;;;;5059369;28;19925;-90
2023/05/31 03:47:29;;;;;;;;;;;;;;;;;;5035608;28;19932;-88
2023/05/31 03:49:56;;;;;;;;;;;;;;;;;;5065518;28;19921;-90
2023/05/31 03:52:29;;;;;;;;;;;;;;;;;;5044109;28;20000;-89
2023/05/31 03:55:03;;;;;;;;;;;;;;;;;;5044142;28;19921;-90
2023/05/31 03:57:30;;;;;;;;;;;;;;;;;;5030391;28;19921;-90
2023/05/31 03:59:59;;;;;;;;;;;;;;;;;;5039347;28;19928;-89
2023/05/31 04:02:27;;;;;;;;;;;;;;;;;;5061126;28;19921;-88
2023/05/31 04:04:54;;;;;;;;;;;;;;;;;;5057664;28;19944;-89
2023/05/31 04:07:24;;;;;;;;;;;;;;;;;;5060789;28;19921;-87
2023/05/31 04:09:51;;;;;;;;;;;;;;;;;;5064830;28;19947;-89
2023/05/31 04:12:19;;;;;;;;;;;;;;;;;;5061967;28;19921;-89
2023/05/31 04:14:52;;;;;;;;;;;;;;;;;;5032522;28;19925;-89
2023/05/31 04:17:21;;;;;;;;;;;;;;;;;;5034814;28;19920;-89
2023/05/31 04:19:49;;;;;;;;;;;;;;;;;;5060294;28;20424;-89
2023/05/31 04:22:17;;;;;;;;;;;;;;;;;;5062411;28;19925;-89
2023/05/31 04:24:49;;;;;;;;;;;;;;;;;;5033796;28;19921;-89
2023/05/31 04:27:25;;;;;;;;;;;;;;;;;;5059138;28;19952;-89
2023/05/31 04:29:57;;;;;;;;;;;;;;;;;;5032296;28;19921;-89
2023/05/31 04:32:24;;;;;;;;;;;;;;;;;;5064307;28;19921;-88
2023/05/31 04:34:57;;;;;;;;;;;;;;;;;;5063024;28;20487;-90
2023/05/31 04:37:29;;;;;;;;;;;;;;;;;;5062486;28;19925;-89
2023/05/31 04:39:57;;;;;;;;;;;;;;;;;;5054839;28;19921;-89
2023/05/31 04:42:30;;;;;;;;;;;;;;;;;;5047780;28;19928;-89
2023/05/31 04:45:04;;;;;;;;;;;;;;;;;;5059940;28;19932;-87
2023/05/31 04:47:37;;;;;;;;;;;;;;;;;;5032736;28;19921;-89
2023/05/31 04:50:04;;;;;;;;;;;;;;;;;;5054475;28;20377;-88
2023/05/31 04:52:33;;;;;;;;;;;;;;;;;;5063893;28;20405;-89
2023/05/31 04:55:06;;;;;;;;;;;;;;;;;;5032509;28;19925;-90
2023/05/31 04:57:36;;;;;;;;;;;;;;;;;;5045899;28;20317;-88
2023/05/31 05:00:09;;;;;;;;;;;;;;;;;;5032421;28;19921;-91
2023/05/31 05:02:43;;;;;;;;;;;;;;;;;;5020490;28;19925;-86
2023/05/31 05:05:10;;;;;;;;;;;;;;;;;;5054576;28;19928;-85
2023/05/31 05:07:43;;;;;;;;;;;;;;;;;;5033691;28;19929;-88
2023/05/31 05:10:10;;;;;;;;;;;;;;;;;;5054082;28;20282;-87
2023/05/31 05:12:38;;;;;;;;;;;;;;;;;;5027835;28;19932;-86
2023/05/31 05:15:06;;;;;;;;;;;;;;;;;;5055027;28;19932;-88
2023/05/31 05:17:41;;;;;;;;;;;;;;;;;;5024226;28;19928;-86
2023/05/31 05:20:10;;;;;;;;;;;;;;;;;;5026892;28;19925;-87
2023/05/31 05:22:38;;;;;;;;;;;;;;;;;;5053871;28;19921;-85
2023/05/31 05:25:06;;;;;;;;;;;;;;;;;;5053732;28;20617;-86
2023/05/31 05:27:39;;;;;;;;;;;;;;;;;;5054519;28;19925;-86
2023/05/31 05:30:07;;;;;;;;;;;;;;;;;;5052629;28;19932;-86
2023/05/31 05:32:35;;;;;;;;;;;;;;;;;;5051928;28;19921;-86
2023/05/31 05:35:08;;;;;;;;;;;;;;;;;;5020813;28;19929;-87
2023/05/31 05:37:36;;;;;;;;;;;;;;;;;;5051633;28;19921;-87
2023/05/31 05:40:09;;;;;;;;;;;;;;;;;;5022796;28;19928;-88
2023/05/31 05:42:42;;;;;;;;;;;;;;;;;;5022056;28;20199;-87
2023/05/31 05:45:14;;;;;;;;;;;;;;;;;;5056468;28;19929;-87
2023/05/31 05:47:45;;;;;;;;;;;;;;;;;;5054429;28;19928;-89
2023/05/31 05:50:13;;;;;;;;;;;;;;;;;;5057015;28;19940;-86
2023/05/31 05:52:40;;;;;;;;;;;;;;;;;;5049845;28;19921;-88
2023/05/31 05:55:13;;;;;;;;;;;;;;;;;;5054613;28;20369;-87
2023/05/31 05:57:40;;;;;;;;;;;;;;;;;;5058031;28;19921;-87
2023/05/31 06:00:26;;;;;;;;;;;;;;;;;;5050927;28;19924;-86
2023/05/31 06:02:54;;;;;;;;;;;;;;;;;;5051575;28;19925;-88
2023/05/31 06:05:25;;;;;;;;;;;;;;;;;;5052004;28;19936;-87
2023/05/31 06:07:52;;;;;;;;;;;;;;;;;;5060722;28;19947;-86
2023/05/31 06:10:20;;;;;;;;;;;;;;;;;;5052997;28;19932;-86
2023/05/31 06:12:48;;;;;;;;;;;;;;;;;;5051227;28;19925;-87
2023/05/31 06:15:17;;;;;;;;;;;;;;;;;;5052311;28;19921;-87
2023/05/31 06:17:44;;;;;;;;;;;;;;;;;;5039945;28;19943;-86
2023/05/31 06:20:13;;;;;;;;;;;;;;;;;;5053063;28;19928;-85
2023/05/31 06:22:40;;;;;;;;;;;;;;;;;;5022824;28;19921;-87
2023/05/31 06:25:08;;;;;;;;;;;;;;;;;;5051106;28;19952;-86
2023/05/31 06:27:35;;;;;;;;;;;;;;;;;;5024470;28;20385;-86
2023/05/31 06:30:03;;;;;;;;;;;;;;;;;;5053994;28;19935;-86
2023/05/31 06:32:34;;;;;;;;;;;;;;;;;;5015054;28;19932;-85
2023/05/31 06:35:02;;;;;;;;;;;;;;;;;;5025292;28;19935;-86
2023/05/31 06:37:31;;;;;;;;;;;;;;;;;;5020840;28;20280;-86
2023/05/31 06:39:59;;;;;;;;;;;;;;;;;;5017068;28;20830;-86
2023/05/31 06:42:27;;;;;;;;;;;;;;;;;;5051339;28;19940;-87
2023/05/31 06:44:57;;;;;;;;;;;;;;;;;;5019610;28;19955;-87
2023/05/31 06:47:45;;;;;;;;;;;;;;;;;;5014362;28;19929;-84
2023/05/31 06:50:15;;;;;;;;;;;;;;;;;;5022540;28;19932;-86
2023/05/31 06:52:46;;;;;;;;;;;;;;;;;;5020507;28;19940;-87
2023/05/31 06:55:36;;;;;;;;;;;;;;;;;;5059247;28;19928;-88
2023/05/31 06:58:03;;;;;;;;;;;;;;;;;;5042574;28;19929;-85
2023/05/31 07:00:33;;;;;;;;;;;;;;;;;;5013250;28;19935;-88
2023/05/31 07:03:01;;;;;;;;;;;;;;;;;;5049048;28;19929;-85
2023/05/31 07:05:29;;;;;;;;;;;;;;;;;;5051516;28;19940;-86
2023/05/31 07:07:57;;;;;;;;;;;;;;;;;;5021264;28;19991;-86
2023/05/31 07:10:27;;;;;;;;;;;;;;;;;;5044939;28;19936;-85
2023/05/31 07:12:54;;;;;;;;;;;;;;;;;;5049752;28;20456;-83
2023/05/31 07:15:27;;;;;;;;;;;;;;;;;;5014837;28;19928;-84
2023/05/31 07:17:55;;;;;;;;;;;;;;;;;;5017191;28;19940;-87
2023/05/31 07:20:23;;;;;;;;;;;;;;;;;;5044722;28;20424;-84
2023/05/31 07:22:55;;;;;;;;;;;;;;;;;;5050304;28;19933;-81
2023/05/31 07:25:23;;;;;;;;;;;;;;;;;;5018986;28;20296;-86
2023/05/31 07:27:51;;;;;;;;;;;;;;;;;;5059930;28;20649;-86
2023/05/31 07:30:18;;;;;;;;;;;;;;;;;;5019023;28;20444;-86
2023/05/31 07:32:46;;;;;;;;;;;;;;;;;;5014578;28;19932;-85
2023/05/31 07:35:13;;;;;;;;;;;;;;;;;;5022807;28;19929;-85
2023/05/31 07:37:46;;;;;;;;;;;;;;;;;;5037430;28;19929;-85
2023/05/31 07:40:15;;;;;;;;;;;;;;;;;;5022244;28;19924;-88
2023/05/31 07:42:45;;;;;;;;;;;;;;;;;;5015283;28;20752;-85
2023/05/31 07:45:13;;;;;;;;;;;;;;;;;;5016700;28;19928;-83
2023/05/31 07:47:40;;;;;;;;;;;;;;;;;;5018066;28;19921;-88
2023/05/31 07:50:08;;;;;;;;;;;;;;;;;;5053205;28;19929;-87
2023/05/31 07:52:35;;;;;;;;;;;;;;;;;;5021877;28;19929;-84
2023/05/31 07:55:03;;;;;;;;;;;;;;;;;;5058048;28;19932;-87
2023/05/31 07:57:31;;;;;;;;;;;;;;;;;;5020347;28;19928;-87
2023/05/31 07:59:58;;;;;;;;;;;;;;;;;;5021056;28;19928;-88
2023/05/31 08:02:26;;;;;;;;;;;;;;;;;;5050961;28;19944;-87
2023/05/31 08:05:01;;;;;;;;;;;;;;;;;;5015250;28;19932;-84
2023/05/31 08:07:29;;;;;;;;;;;;;;;;;;5023195;28;19929;-84
2023/05/31 08:10:01;;;;;;;;;;;;;;;;;;5023063;28;19936;-84
2023/05/31 08:12:29;;;;;;;;;;;;;;;;;;5018911;28;19929;-87
2023/05/31 08:15:01;;;;;;;;;;;;;;;;;;5020276;28;19929;-88
2023/05/31 08:17:29;;;;;;;;;;;;;;;;;;5017177;28;19929;-89
2023/05/31 08:20:03;;;;;;;;;;;;;;;;;;5050469;28;19963;-90
2023/05/31 08:22:31;;;;;;;;;;;;;;;;;;5013833;28;20307;-86
2023/05/31 08:24:58;;;;;;;;;;;;;;;;;;5045033;28;19936;-87
2023/05/31 08:27:31;;;;;;;;;;;;;;;;;;5014081;28;19925;-85
2023/05/31 08:29:59;;;;;;;;;;;;;;;;;;5016786;28;19929;-81
2023/05/31 08:32:31;;;;;;;;;;;;;;;;;;5044950;28;19935;-83
2023/05/31 08:34:59;;;;;;;;;;;;;;;;;;5015021;28;19952;-86
2023/05/31 08:37:31;;;;;;;;;;;;;;;;;;5019186;28;19929;-84
2023/05/31 08:39:59;;;;;;;;;;;;;;;;;;5045711;28;19928;-87
2023/05/31 08:42:26;;;;;;;;;;;;;;;;;;5010269;28;19936;-84
2023/05/31 08:44:54;;;;;;;;;;;;;;;;;;5010427;28;20301;-84
2023/05/31 08:47:21;;;;;;;;;;;;;;;;;;5011435;28;20226;-88
2023/05/31 08:49:49;;;;;;;;;;;;;;;;;;5010192;28;19928;-85
2023/05/31 08:52:17;;;;;;;;;;;;;;;;;;5019805;28;19929;-87
2023/05/31 08:54:44;;;;;;;;;;;;;;;;;;5009254;28;19936;-85
2023/05/31 08:57:12;;;;;;;;;;;;;;;;;;5022788;28;20504;-88
2023/05/31 08:59:44;;;;;;;;;;;;;;;;;;5011763;28;19979;-86
2023/05/31 09:02:12;;;;;;;;;;;;;;;;;;5014848;28;19929;-83
2023/05/31 09:04:39;;;;;;;;;;;;;;;;;;5044801;28;19936;-87
2023/05/31 09:07:12;;;;;;;;;;;;;;;;;;5011647;28;19947;-84
2023/05/31 09:09:45;;;;;;;;;;;;;;;;;;5007325;28;20523;-83
2023/05/31 09:12:17;;;;;;;;;;;;;;;;;;5012900;28;19928;-87
2023/05/31 09:14:45;;;;;;;;;;;;;;;;;;5016344;28;19929;-84
2023/05/31 09:17:12;;;;;;;;;;;;;;;;;;5010407;28;20352;-86
2023/05/31 09:19:40;;;;;;;;;;;;;;;;;;5046852;28;19929;-86
2023/05/31 09:22:08;;;;;;;;;;;;;;;;;;5009156;28;19940;-83
2023/05/31 09:24:35;;;;;;;;;;;;;;;;;;5009591;28;19929;-84
2023/05/31 09:27:03;;;;;;;;;;;;;;;;;;5008953;28;19929;-84
2023/05/31 09:29:31;;;;;;;;;;;;;;;;;;5045658;28;19935;-90
2023/05/31 09:31:58;;;;;;;;;;;;;;;;;;5006907;28;19936;-84
2023/05/31 09:34:26;;;;;;;;;;;;;;;;;;5020479;28;19929;-88
2023/05/31 09:36:54;;;;;;;;;;;;;;;;;;5014525;28;20293;-89
2023/05/31 09:39:27;;;;;;;;;;;;;;;;;;5016804;28;20081;-85
2023/05/31 09:41:54;;;;;;;;;;;;;;;;;;5017024;28;19924;-85
2023/05/31 09:44:22;;;;;;;;;;;;;;;;;;5014840;28;19929;-87
2023/05/31 09:46:49;;;;;;;;;;;;;;;;;;5007514;28;20555;-86
2023/05/31 09:49:24;;;;;;;;;;;;;;;;;;5038956;28;20427;-86
2023/05/31 09:51:52;;;;;;;;;;;;;;;;;;5042605;28;19935;-83
2023/05/31 09:54:22;;;;;;;;;;;;;;;;;;5014230;28;20307;-86
2023/05/31 09:56:55;;;;;;;;;;;;;;;;;;5015180;28;19936;-84
2023/05/31 09:59:23;;;;;;;;;;;;;;;;;;4989927;28;19956;-86
2023/05/31 10:01:56;;;;;;;;;;;;;;;;;;5008523;28;19929;-85
2023/05/31 10:04:24;;;;;;;;;;;;;;;;;;5014008;28;20826;-82
2023/05/31 10:06:51;;;;;;;;;;;;;;;;;;5012235;28;20370;-85
2023/05/31 10:09:19;;;;;;;;;;;;;;;;;;5014588;28;19936;-83
2023/05/31 10:11:51;;;;;;;;;;;;;;;;;;5014214;28;19960;-81
2023/05/31 10:14:19;;;;;;;;;;;;;;;;;;5014506;28;19928;-80
2023/05/31 10:16:47;;;;;;;;;;;;;;;;;;5018154;28;19928;-81
2023/05/31 10:19:15;;;;;;;;;;;;;;;;;;5043812;28;20413;-81
2023/05/31 10:21:42;;;;;;;;;;;;;;;;;;5014183;28;19935;-87
2023/05/31 10:24:11;;;;;;;;;;;;;;;;;;5016976;28;19929;-82
2023/05/31 10:26:39;;;;;;;;;;;;;;;;;;5013738;28;20794;-86
2023/05/31 10:29:07;;;;;;;;;;;;;;;;;;5014529;28;19936;-84
2023/05/31 10:31:35;;;;;;;;;;;;;;;;;;5011186;28;20464;-86
2023/05/31 10:34:08;;;;;;;;;;;;;;;;;;5049233;28;19936;-87
2023/05/31 10:36:36;;;;;;;;;;;;;;;;;;5019121;28;20337;-83
2023/05/31 10:39:09;;;;;;;;;;;;;;;;;;5011564;28;19936;-83
2023/05/31 10:41:42;;;;;;;;;;;;;;;;;;5014482;28;19938;-82
2023/05/31 10:44:10;;;;;;;;;;;;;;;;;;5011524;28;19925;-85
2023/05/31 10:46:42;;;;;;;;;;;;;;;;;;5017293;28;19929;-87
2023/05/31 10:49:15;;;;;;;;;;;;;;;;;;5015124;28;19936;-85
2023/05/31 10:51:44;;;;;;;;;;;;;;;;;;5011702;28;20463;-85
2023/05/31 10:54:16;;;;;;;;;;;;;;;;;;5049211;28;20812;-87
2023/05/31 10:56:44;;;;;;;;;;;;;;;;;;5048101;28;20065;-83
2023/05/31 10:59:12;;;;;;;;;;;;;;;;;;5011994;28;20133;-82
2023/05/31 11:01:39;;;;;;;;;;;;;;;;;;5009573;28;19936;-83
2023/05/31 11:04:12;;;;;;;;;;;;;;;;;;5011720;28;19929;-86
2023/05/31 11:06:40;;;;;;;;;;;;;;;;;;5045062;28;20841;-84
2023/05/31 11:09:12;;;;;;;;;;;;;;;;;;5013289;28;19940;-85
2023/05/31 11:11:40;;;;;;;;;;;;;;;;;;5041115;28;20594;-83
2023/05/31 11:14:13;;;;;;;;;;;;;;;;;;5011883;28;19936;-86
2023/05/31 11:16:40;;;;;;;;;;;;;;;;;;5046019;28;19940;-83
2023/05/31 11:19:08;;;;;;;;;;;;;;;;;;5010471;28;19936;-82
2023/05/31 11:21:35;;;;;;;;;;;;;;;;;;4987255;28;20408;-84
2023/05/31 11:24:03;;;;;;;;;;;;;;;;;;5036566;28;19932;-87
2023/05/31 11:26:31;;;;;;;;;;;;;;;;;;5043764;28;20423;-85
2023/05/31 11:29:03;;;;;;;;;;;;;;;;;;5039793;28;20428;-84
2023/05/31 11:31:31;;;;;;;;;;;;;;;;;;5010071;28;20370;-86
2023/05/31 11:33:58;;;;;;;;;;;;;;;;;;5006769;28;19925;-85
2023/05/31 11:36:31;;;;;;;;;;;;;;;;;;5015478;28;19928;-83
2023/05/31 11:39:00;;;;;;;;;;;;;;;;;;5013904;28;20093;-86
2023/05/31 11:41:28;;;;;;;;;;;;;;;;;;5045219;28;19952;-82
2023/05/31 11:43:56;;;;;;;;;;;;;;;;;;5010127;28;20657;-86
2023/05/31 11:46:24;;;;;;;;;;;;;;;;;;5041189;28;19925;-83
2023/05/31 11:48:56;;;;;;;;;;;;;;;;;;5010826;28;19929;-83
2023/05/31 11:51:24;;;;;;;;;;;;;;;;;;5016324;28;20296;-86
2023/05/31 11:53:52;;;;;;;;;;;;;;;;;;5045081;28;19932;-85
2023/05/31 11:56:20;;;;;;;;;;;;;;;;;;5021304;28;20451;-84
2023/05/31 11:58:48;;;;;;;;;;;;;;;;;;5011320;28;19928;-85
2023/05/31 12:01:15;;;;;;;;;;;;;;;;;;5016232;28;19929;-85
2023/05/31 12:03:48;;;;;;;;;;;;;;;;;;5009496;28;19926;-83
2023/05/31 12:06:16;;;;;;;;;;;;;;;;;;5012183;28;20412;-85
2023/05/31 12:08:43;;;;;;;;;;;;;;;;;;5017341;28;19951;-82
2023/05/31 12:11:10;;;;;;;;;;;;;;;;;;5009470;28;19929;-84
2023/05/31 12:13:43;;;;;;;;;;;;;;;;;;5009327;28;19935;-85
2023/05/31 12:16:11;;;;;;;;;;;;;;;;;;5051167;28;19928;-83
2023/05/31 12:18:38;;;;;;;;;;;;;;;;;;5039083;28;19940;-82
2023/05/31 12:21:06;;;;;;;;;;;;;;;;;;5040961;28;19929;-82
2023/05/31 12:23:34;;;;;;;;;;;;;;;;;;5040887;28;19940;-84
2023/05/31 12:26:05;;;;;;;;;;;;;;;;;;5002463;28;19928;-84
2023/05/31 12:28:37;;;;;;;;;;;;;;;;;;5013774;28;19944;-84
2023/05/31 12:31:05;;;;;;;;;;;;;;;;;;5015050;28;19929;-82
2023/05/31 12:33:38;;;;;;;;;;;;;;;;;;5013429;28;19928;-84
2023/05/31 12:36:05;;;;;;;;;;;;;;;;;;5018563;28;19944;-84
2023/05/31 12:38:34;;;;;;;;;;;;;;;;;;5043643;28;19944;-84
2023/05/31 12:41:01;;;;;;;;;;;;;;;;;;5016238;28;19929;-83
2023/05/31 12:43:30;;;;;;;;;;;;;;;;;;5013150;28;19940;-82
2023/05/31 12:45:57;;;;;;;;;;;;;;;;;;5015744;28;19929;-84
2023/05/31 12:48:25;;;;;;;;;;;;;;;;;;5014584;28;20733;-84
2023/05/31 12:50:53;;;;;;;;;;;;;;;;;;5020738;28;19925;-83
2023/05/31 12:53:20;;;;;;;;;;;;;;;;;;5052216;28;19929;-84
2023/05/31 12:55:48;;;;;;;;;;;;;;;;;;5010120;28;19929;-85
2023/05/31 12:58:15;;;;;;;;;;;;;;;;;;5016646;28;19936;-86
2023/05/31 13:00:44;;;;;;;;;;;;;;;;;;5013923;28;19928;-83
2023/05/31 13:03:13;;;;;;;;;;;;;;;;;;5010985;28;19928;-83
2023/05/31 13:05:41;;;;;;;;;;;;;;;;;;5009057;28;19950;-84
2023/05/31 13:08:08;;;;;;;;;;;;;;;;;;5012500;28;21321;-85
2023/05/31 13:10:36;;;;;;;;;;;;;;;;;;5044196;28;19929;-83
2023/05/31 13:13:05;;;;;;;;;;;;;;;;;;5048352;28;19932;-84
2023/05/31 13:15:32;;;;;;;;;;;;;;;;;;5012396;28;19924;-85
2023/05/31 13:18:00;;;;;;;;;;;;;;;;;;5041397;28;20428;-83
2023/05/31 13:20:28;;;;;;;;;;;;;;;;;;5012407;28;19931;-85
2023/05/31 13:23:00;;;;;;;;;;;;;;;;;;5011597;28;20309;-88
2023/05/31 13:25:28;;;;;;;;;;;;;;;;;;4985413;28;19928;-83
2023/05/31 13:27:55;;;;;;;;;;;;;;;;;;5044552;28;19929;-84
2023/05/31 13:30:23;;;;;;;;;;;;;;;;;;5014593;28;19929;-80
2023/05/31 13:32:51;;;;;;;;;;;;;;;;;;5018494;28;19936;-85
2023/05/31 13:35:18;;;;;;;;;;;;;;;;;;5009071;28;19932;-81
2023/05/31 13:37:51;;;;;;;;;;;;;;;;;;5011431;28;19929;-84
2023/05/31 13:40:19;;;;;;;;;;;;;;;;;;5018992;28;20375;-86
2023/05/31 13:42:46;;;;;;;;;;;;;;;;;;5011461;28;19929;-83
2023/05/31 13:45:14;;;;;;;;;;;;;;;;;;5041784;28;19929;-85
2023/05/31 13:47:41;;;;;;;;;;;;;;;;;;5041384;28;19935;-82
2023/05/31 13:50:14;;;;;;;;;;;;;;;;;;5045034;28;19932;-85
2023/05/31 13:52:42;;;;;;;;;;;;;;;;;;5010030;28;20409;-85
2023/05/31 13:55:09;;;;;;;;;;;;;;;;;;5010356;28;21136;-83
2023/05/31 13:57:38;;;;;;;;;;;;;;;;;;5051587;28;19929;-86
2023/05/31 14:00:06;;;;;;;;;;;;;;;;;;5016814;28;19936;-82
2023/05/31 14:02:40;;;;;;;;;;;;;;;;;;5043197;28;19924;-85
2023/05/31 14:05:08;;;;;;;;;;;;;;;;;;5016361;28;19929;-82
2023/05/31 14:07:35;;;;;;;;;;;;;;;;;;5007433;28;20574;-83
2023/05/31 14:10:04;;;;;;;;;;;;;;;;;;5007921;28;19936;-83
2023/05/31 14:12:31;;;;;;;;;;;;;;;;;;5033902;28;19956;-84
2023/05/31 14:14:59;;;;;;;;;;;;;;;;;;5005303;28;19929;-86
2023/05/31 14:17:27;;;;;;;;;;;;;;;;;;5044488;28;20690;-81
2023/05/31 14:19:55;;;;;;;;;;;;;;;;;;5007746;28;20008;-82
2023/05/31 14:22:22;;;;;;;;;;;;;;;;;;5014244;28;19929;-82
2023/05/31 14:24:50;;;;;;;;;;;;;;;;;;4986978;28;20414;-84
2023/05/31 14:27:18;;;;;;;;;;;;;;;;;;5011370;28;19936;-88
2023/05/31 14:29:46;;;;;;;;;;;;;;;;;;5018061;28;19952;-82
2023/05/31 14:32:14;;;;;;;;;;;;;;;;;;5011313;28;19936;-85
2023/05/31 14:34:42;;;;;;;;;;;;;;;;;;5016693;28;19935;-84
2023/05/31 14:37:10;;;;;;;;;;;;;;;;;;5023316;28;19939;-83
2023/05/31 14:39:41;;;;;;;;;;;;;;;;;;5013234;28;19928;-86
2023/05/31 14:42:09;;;;;;;;;;;;;;;;;;5048284;28;19936;-84
2023/05/31 14:44:36;;;;;;;;;;;;;;;;;;5011558;28;19948;-84
2023/05/31 14:47:14;;;;;;;;;;;;;;;;;;5023429;28;19928;-86
2023/05/31 14:49:51;;;;;;;;;;;;;;;;;;5021513;28;19952;-84
2023/05/31 14:52:19;;;;;;;;;;;;;;;;;;5011469;28;20325;-84
2023/05/31 14:54:47;;;;;;;;;;;;;;;;;;5009018;28;21005;-87
2023/05/31 14:57:15;;;;;;;;;;;;;;;;;;5010323;28;19936;-85
2023/05/31 14:59:42;;;;;;;;;;;;;;;;;;5008631;28;19929;-83
2023/05/31 15:02:10;;;;;;;;;;;;;;;;;;5009711;28;19938;-83
2023/05/31 15:04:38;;;;;;;;;;;;;;;;;;5041412;28;20262;-83
2023/05/31 15:07:11;;;;;;;;;;;;;;;;;;5008042;28;20074;-85
2023/05/31 15:09:38;;;;;;;;;;;;;;;;;;5044756;28;19937;-85
2023/05/31 15:12:06;;;;;;;;;;;;;;;;;;5049259;28;19933;-83
2023/05/31 15:14:39;;;;;;;;;;;;;;;;;;5015508;28;20366;-86
2023/05/31 15:17:07;;;;;;;;;;;;;;;;;;5012300;28;19929;-84
2023/05/31 15:19:39;;;;;;;;;;;;;;;;;;5009156;28;21390;-84
2023/05/31 15:22:12;;;;;;;;;;;;;;;;;;5018641;28;19928;-85
2023/05/31 15:24:44;;;;;;;;;;;;;;;;;;4987239;28;19933;-85
2023/05/31 15:27:12;;;;;;;;;;;;;;;;;;5020100;28;19933;-86
2023/05/31 15:29:40;;;;;;;;;;;;;;;;;;5013182;28;20324;-82
2023/05/31 15:32:08;;;;;;;;;;;;;;;;;;5018326;28;20352;-86
2023/05/31 15:34:35;;;;;;;;;;;;;;;;;;5021528;28;19929;-86
2023/05/31 15:37:03;;;;;;;;;;;;;;;;;;5020211;28;19935;-83
2023/05/31 15:39:30;;;;;;;;;;;;;;;;;;5048079;28;19929;-88
2023/05/31 15:42:00;;;;;;;;;;;;;;;;;;5013841;28;20289;-85
2023/05/31 15:44:27;;;;;;;;;;;;;;;;;;5049291;28;19925;-83
2023/05/31 15:46:56;;;;;;;;;;;;;;;;;;5019810;28;19936;-88
2023/05/31 15:49:24;;;;;;;;;;;;;;;;;;5049511;28;19929;-86
2023/05/31 15:51:51;;;;;;;;;;;;;;;;;;5036101;28;20267;-86
2023/05/31 15:54:19;;;;;;;;;;;;;;;;;;5021115;28;19933;-86
2023/05/31 15:56:47;;;;;;;;;;;;;;;;;;5021295;28;19968;-84
2023/05/31 15:59:14;;;;;;;;;;;;;;;;;;5017489;28;19929;-84
2023/05/31 16:01:42;;;;;;;;;;;;;;;;;;5020550;28;19928;-84
2023/05/31 16:04:09;;;;;;;;;;;;;;;;;;5022243;28;19936;-85
2023/05/31 16:06:37;;;;;;;;;;;;;;;;;;5018924;28;19925;-86
2023/05/31 16:09:10;;;;;;;;;;;;;;;;;;5016290;28;20000;-82
2023/05/31 16:11:37;;;;;;;;;;;;;;;;;;5015677;28;19936;-83
2023/05/31 16:14:10;;;;;;;;;;;;;;;;;;5016588;28;19935;-85
2023/05/31 16:16:38;;;;;;;;;;;;;;;;;;5012742;28;20258;-85
2023/05/31 16:19:05;;;;;;;;;;;;;;;;;;5013493;28;19936;-86
2023/05/31 16:21:33;;;;;;;;;;;;;;;;;;5013910;28;19929;-85
2023/05/31 16:24:01;;;;;;;;;;;;;;;;;;5015304;28;19929;-84
2023/05/31 16:26:33;;;;;;;;;;;;;;;;;;4979806;28;19928;-83
2023/05/31 16:29:01;;;;;;;;;;;;;;;;;;5049497;28;20428;-86
2023/05/31 16:31:28;;;;;;;;;;;;;;;;;;5048636;28;19939;-84
2023/05/31 16:33:56;;;;;;;;;;;;;;;;;;5015178;28;19929;-86
2023/05/31 16:36:30;;;;;;;;;;;;;;;;;;5018484;28;20656;-87
2023/05/31 16:39:00;;;;;;;;;;;;;;;;;;5017472;28;19932;-84
2023/05/31 16:41:27;;;;;;;;;;;;;;;;;;5049355;28;19933;-84
2023/05/31 16:43:55;;;;;;;;;;;;;;;;;;5043947;28;21670;-85
2023/05/31 16:46:27;;;;;;;;;;;;;;;;;;5011108;28;20381;-86
2023/05/31 16:48:55;;;;;;;;;;;;;;;;;;5045417;28;19936;-85
2023/05/31 16:51:23;;;;;;;;;;;;;;;;;;5011625;28;19936;-84
2023/05/31 16:53:50;;;;;;;;;;;;;;;;;;5017308;28;19924;-86
2023/05/31 16:56:18;;;;;;;;;;;;;;;;;;5021059;28;19929;-83
2023/05/31 16:58:45;;;;;;;;;;;;;;;;;;5017768;28;19928;-84